Time;durP1;ratioP1;P1;durP2;ratioP2;P2;SDS_P1;SDS_P2;PMS_P1;PMS_P2;Temp;Humidity;BMP_temperature;BMP_pressure;BME280_temperature;BME280_humidity;BME280_pressure;Samples;Min_cycle;Max_cycle;Signal;HPM_P1;HPM_P2
2022/05/09 00:02:23;;;;;;;14.57;5.50;;;7.70;99.90;;;;;;5044992;28;20029;-74
2022/05/09 00:04:49;;;;;;;17.23;5.45;;;7.60;99.90;;;;;;5057491;28;20058;-74
2022/05/09 00:07:14;;;;;;;14.13;5.97;;;7.60;99.90;;;;;;5045464;28;20067;-74
2022/05/09 00:09:40;;;;;;;11.48;5.10;;;7.50;99.90;;;;;;5044262;28;21677;-74
2022/05/09 00:12:06;;;;;;;11.13;5.10;;;7.50;99.90;;;;;;5044205;28;20529;-74
2022/05/09 00:14:32;;;;;;;14.50;5.38;;;7.50;99.90;;;;;;5043938;28;20033;-74
2022/05/09 00:16:58;;;;;;;12.95;4.65;;;7.50;99.90;;;;;;5043666;28;20072;-74
2022/05/09 00:19:24;;;;;;;12.02;4.60;;;7.50;99.90;;;;;;5045410;28;20121;-75
2022/05/09 00:21:51;;;;;;;8.55;3.80;;;7.50;99.90;;;;;;5044265;28;20651;-75
2022/05/09 00:24:17;;;;;;;7.78;2.80;;;7.40;99.90;;;;;;5044465;28;20586;-75
2022/05/09 00:26:44;;;;;;;6.65;2.60;;;7.50;99.90;;;;;;5045302;28;20406;-74
2022/05/09 00:29:11;;;;;;;6.78;2.53;;;7.40;99.90;;;;;;5043951;28;20041;-75
2022/05/09 00:31:39;;;;;;;9.38;2.70;;;7.50;99.90;;;;;;5043109;28;20129;-75
2022/05/09 00:34:05;;;;;;;4.85;1.67;;;7.50;99.90;;;;;;5044478;28;20041;-75
2022/05/09 00:36:31;;;;;;;4.43;1.45;;;7.40;99.90;;;;;;5028679;28;20551;-75
2022/05/09 00:38:59;;;;;;;8.40;2.70;;;7.40;99.90;;;;;;5044552;28;20037;-75
2022/05/09 00:41:34;;;;;;;6.00;2.97;;;7.40;99.90;;;;;;5044372;28;20040;-75
2022/05/09 00:44:01;;;;;;;5.20;2.55;;;7.40;99.90;;;;;;5042830;28;20094;-75
2022/05/09 00:46:30;;;;;;;6.53;2.60;;;7.40;99.90;;;;;;5027791;28;20083;-75
2022/05/09 00:49:03;;;;;;;5.38;2.65;;;7.20;99.90;;;;;;5024880;28;20043;-75
2022/05/09 00:51:29;;;;;;;7.90;3.00;;;7.00;99.90;;;;;;5044666;28;20041;-75
2022/05/09 00:53:57;;;;;;;7.00;2.80;;;7.10;99.90;;;;;;5043233;28;20045;-74
2022/05/09 00:56:30;;;;;;;7.28;3.00;;;7.10;99.90;;;;;;5042140;28;20044;-74
2022/05/09 00:59:00;;;;;;;8.40;3.40;;;7.10;99.90;;;;;;5028021;28;20045;-74
2022/05/09 01:01:27;;;;;;;7.75;3.15;;;7.10;99.90;;;;;;5026072;28;20500;-74
2022/05/09 01:04:09;;;;;;;6.93;3.00;;;7.10;99.90;;;;;;5043471;28;20029;-75
2022/05/09 01:06:36;;;;;;;10.98;3.47;;;7.00;99.90;;;;;;5042811;28;20037;-75
2022/05/09 01:09:02;;;;;;;7.78;3.20;;;7.00;99.90;;;;;;5045569;28;20047;-74
2022/05/09 01:11:29;;;;;;;8.50;3.20;;;7.00;99.90;;;;;;5024436;28;20491;-75
2022/05/09 01:14:01;;;;;;;8.55;3.03;;;7.10;99.90;;;;;;5041930;28;20041;-75
2022/05/09 01:16:27;;;;;;;10.25;3.50;;;7.00;99.90;;;;;;5059434;28;20503;-75
2022/05/09 01:18:52;;;;;;;10.52;3.38;;;6.90;99.90;;;;;;5043593;28;20044;-74
2022/05/09 01:21:37;;;;;;;10.07;3.30;;;6.80;99.90;;;;;;5065762;28;20040;-74
2022/05/09 01:24:06;;;;;;;9.95;3.90;;;6.70;99.90;;;;;;5046494;28;20040;-74
2022/05/09 01:26:32;;;;;;;9.40;3.53;;;6.70;99.90;;;;;;5032026;28;20032;-74
2022/05/09 01:29:04;;;;;;;7.30;3.50;;;6.70;99.90;;;;;;5047130;28;20102;-75
2022/05/09 01:31:30;;;;;;;6.57;3.25;;;6.70;99.90;;;;;;5047696;28;20069;-75
2022/05/09 01:33:56;;;;;;;13.50;3.72;;;6.70;99.90;;;;;;5046171;28;20041;-74
2022/05/09 01:36:28;;;;;;;6.40;3.17;;;6.70;99.90;;;;;;5047763;28;20037;-74
2022/05/09 01:39:06;;;;;;;5.25;2.80;;;6.70;99.90;;;;;;5045095;28;20403;-75
2022/05/09 01:41:43;;;;;;;8.82;3.40;;;6.70;99.90;;;;;;5061465;28;20037;-74
2022/05/09 01:44:10;;;;;;;11.57;3.40;;;6.50;99.90;;;;;;5045024;28;20164;-74
2022/05/09 01:49:29;;;;;;;6.53;2.60;;;6.40;99.90;;;;;;5045678;28;20041;-75
2022/05/09 01:49:29;;;;;;;5.88;2.40;;;6.30;99.90;;;;;;5046139;28;20048;-74
2022/05/09 01:51:55;;;;;;;4.28;2.20;;;6.10;99.90;;;;;;5046673;28;20472;-74
2022/05/09 01:54:21;;;;;;;6.18;2.35;;;6.00;99.90;;;;;;5045835;28;20115;-74
2022/05/09 01:56:46;;;;;;;5.15;2.22;;;6.00;99.90;;;;;;5047167;28;20128;-74
2022/05/09 01:59:14;;;;;;;3.33;2.55;;;6.00;99.90;;;;;;5047102;28;20115;-74
2022/05/09 02:01:46;;;;;;;4.70;2.30;;;6.00;99.90;;;;;;5046868;28;20056;-74
2022/05/09 02:04:13;;;;;;;3.17;1.98;;;6.00;99.90;;;;;;5043801;28;20068;-74
2022/05/09 02:06:40;;;;;;;3.53;2.10;;;6.10;99.90;;;;;;5048236;28;20451;-74
2022/05/09 02:09:05;;;;;;;4.45;1.90;;;6.10;99.90;;;;;;5047374;28;20513;-74
2022/05/09 02:11:31;;;;;;;2.92;1.67;;;6.00;99.90;;;;;;5046117;28;20036;-74
2022/05/09 02:13:57;;;;;;;2.40;1.50;;;6.10;99.90;;;;;;5045279;28;20418;-74
2022/05/09 02:16:23;;;;;;;2.33;1.60;;;6.00;99.90;;;;;;5047089;28;20039;-74
2022/05/09 02:18:48;;;;;;;3.88;1.70;;;6.00;99.90;;;;;;5046099;28;20065;-74
2022/05/09 02:21:14;;;;;;;4.22;1.75;;;6.00;99.90;;;;;;5047169;28;20229;-74
2022/05/09 02:23:40;;;;;;;4.93;2.15;;;5.90;99.90;;;;;;5066942;28;20041;-74
2022/05/09 02:26:07;;;;;;;3.28;1.70;;;5.80;99.90;;;;;;5046287;28;20391;-74
2022/05/09 02:28:33;;;;;;;2.80;1.80;;;5.70;99.90;;;;;;5046649;28;20127;-74
2022/05/09 02:30:59;;;;;;;4.63;2.03;;;5.60;99.90;;;;;;5046241;28;20090;-75
2022/05/09 02:33:25;;;;;;;4.88;2.00;;;5.70;99.90;;;;;;5029973;28;20056;-76
2022/05/09 02:35:50;;;;;;;6.30;2.38;;;5.70;99.90;;;;;;5046063;28;20049;-76
2022/05/09 02:38:16;;;;;;;4.53;2.33;;;5.70;99.90;;;;;;5046752;28;20076;-76
2022/05/09 02:40:42;;;;;;;7.00;2.85;;;5.80;99.90;;;;;;5046285;28;20037;-76
2022/05/09 02:43:08;;;;;;;7.78;3.03;;;5.80;99.90;;;;;;5045413;28;20021;-76
2022/05/09 02:45:33;;;;;;;8.43;3.25;;;5.80;99.90;;;;;;5064987;28;20037;-76
2022/05/09 02:47:59;;;;;;;8.35;2.97;;;5.80;99.90;;;;;;5052147;28;20123;-76
2022/05/09 02:50:26;;;;;;;7.03;3.10;;;5.80;99.90;;;;;;5046405;28;20039;-76
2022/05/09 02:52:54;;;;;;;9.70;3.55;;;5.80;99.90;;;;;;5044339;28;20572;-76
2022/05/09 02:55:21;;;;;;;9.23;3.45;;;5.90;99.90;;;;;;5045563;28;20041;-76
2022/05/09 02:57:47;;;;;;;10.50;3.63;;;5.90;99.90;;;;;;5044089;28;20041;-76
2022/05/09 03:00:18;;;;;;;10.38;3.45;;;5.80;99.90;;;;;;5045633;28;20037;-76
2022/05/09 03:04:38;;;;;;;8.40;3.42;;;5.60;99.90;;;;;;5042899;28;20123;-76
2022/05/09 03:05:31;;;;;;;11.50;3.42;;;5.60;99.90;;;;;;5061648;28;20068;-76
2022/05/09 03:07:56;;;;;;;7.03;3.50;;;5.60;99.90;;;;;;5043596;28;20529;-76
2022/05/09 03:10:23;;;;;;;9.77;3.75;;;5.70;99.90;;;;;;5045758;28;20120;-75
2022/05/09 03:12:50;;;;;;;6.07;3.03;;;5.70;99.90;;;;;;5044999;28;20091;-75
2022/05/09 03:15:16;;;;;;;10.73;3.83;;;5.70;99.90;;;;;;5044894;28;20086;-76
2022/05/09 03:17:41;;;;;;;6.30;2.63;;;5.70;99.90;;;;;;5045978;28;20410;-76
2022/05/09 03:20:08;;;;;;;6.80;3.25;;;5.60;99.90;;;;;;5045918;28;20495;-76
2022/05/09 03:22:34;;;;;;;8.02;2.88;;;5.50;99.90;;;;;;5046006;28;20040;-76
2022/05/09 03:25:00;;;;;;;6.88;3.42;;;5.30;99.90;;;;;;5030951;28;20056;-76
2022/05/09 03:27:26;;;;;;;7.55;3.25;;;5.30;99.90;;;;;;5046524;28;20049;-76
2022/05/09 03:29:52;;;;;;;8.50;3.35;;;5.30;99.90;;;;;;5045878;28;20037;-75
2022/05/09 03:32:17;;;;;;;8.40;3.42;;;5.40;99.90;;;;;;5028198;28;20041;-76
2022/05/09 03:34:44;;;;;;;7.55;3.08;;;5.40;99.90;;;;;;5044536;28;20466;-76
2022/05/09 03:37:10;;;;;;;9.38;3.65;;;5.50;99.90;;;;;;5045054;28;20044;-76
2022/05/09 03:39:36;;;;;;;5.57;2.42;;;5.50;99.90;;;;;;5044066;28;20107;-76
2022/05/09 03:42:01;;;;;;;6.72;2.10;;;5.50;99.90;;;;;;5045181;28;20045;-76
2022/05/09 03:44:27;;;;;;;4.05;1.77;;;5.50;99.90;;;;;;5044511;28;20136;-76
2022/05/09 03:46:53;;;;;;;5.88;2.17;;;5.50;99.90;;;;;;5042962;28;20207;-76
2022/05/09 03:49:19;;;;;;;6.22;2.45;;;5.40;99.90;;;;;;5045291;28;20046;-75
2022/05/09 03:51:45;;;;;;;6.93;2.70;;;5.30;99.90;;;;;;5044571;28;20095;-76
2022/05/09 03:54:11;;;;;;;7.32;3.17;;;5.20;99.90;;;;;;5043478;28;20037;-76
2022/05/09 03:56:37;;;;;;;6.60;2.85;;;5.10;99.90;;;;;;5060972;28;20045;-76
2022/05/09 03:59:02;;;;;;;8.60;3.65;;;5.10;99.90;;;;;;5045072;28;20048;-76
2022/05/09 04:01:28;;;;;;;5.63;2.65;;;5.00;99.90;;;;;;5044424;28;20036;-76
2022/05/09 04:03:54;;;;;;;4.57;2.78;;;5.00;99.90;;;;;;5042084;28;20036;-76
2022/05/09 04:06:19;;;;;;;8.38;3.13;;;5.10;99.90;;;;;;5045202;28;20037;-76
2022/05/09 04:08:45;;;;;;;5.63;2.75;;;5.10;99.90;;;;;;5045330;28;20029;-76
2022/05/09 04:11:10;;;;;;;7.55;3.13;;;5.10;99.90;;;;;;5028182;28;20388;-76
2022/05/09 04:13:36;;;;;;;7.25;2.90;;;5.10;99.90;;;;;;5042734;28;20052;-76
2022/05/09 04:18:46;;;;;;;6.55;2.75;;;4.90;99.90;;;;;;5041592;28;20041;-76
2022/05/09 04:21:13;;;;;;;5.18;3.03;;;4.90;99.90;;;;;;5043530;28;20542;-76
2022/05/09 04:23:39;;;;;;;6.25;3.67;;;5.00;99.90;;;;;;5042965;28;20040;-76
2022/05/09 04:26:06;;;;;;;6.30;3.50;;;5.10;99.90;;;;;;5042856;28;20095;-76
2022/05/09 04:28:32;;;;;;;5.43;3.15;;;5.20;99.90;;;;;;5044217;28;20055;-76
2022/05/09 04:30:58;;;;;;;4.25;2.97;;;5.30;99.90;;;;;;5044139;28;20087;-76
2022/05/09 04:33:24;;;;;;;5.43;2.90;;;5.40;99.90;;;;;;5042640;28;20502;-76
2022/05/09 04:35:49;;;;;;;6.95;3.50;;;5.40;99.90;;;;;;5036213;28;20044;-77
2022/05/09 04:38:21;;;;;;;4.03;2.60;;;5.40;99.90;;;;;;5044400;28;20040;-76
2022/05/09 04:40:51;;;;;;;5.93;2.80;;;5.30;99.90;;;;;;5044211;28;20155;-76
2022/05/09 04:43:24;;;;;;;6.43;2.90;;;5.30;99.90;;;;;;5043573;28;20102;-76
2022/05/09 04:45:50;;;;;;;4.70;2.60;;;5.40;99.90;;;;;;5059396;28;20067;-76
2022/05/09 04:48:17;;;;;;;7.00;2.40;;;5.50;99.90;;;;;;5044247;28;20445;-76
2022/05/09 04:50:43;;;;;;;5.60;2.55;;;5.70;99.90;;;;;;5025708;28;20037;-76
2022/05/09 04:53:09;;;;;;;6.22;2.33;;;5.80;99.90;;;;;;5044903;28;20445;-76
2022/05/09 04:55:35;;;;;;;10.10;5.25;;;5.90;99.90;;;;;;5043745;28;20090;-76
2022/05/09 04:58:00;;;;;;;10.63;4.50;;;6.00;99.90;;;;;;5024657;28;20041;-76
2022/05/09 05:00:27;;;;;;;8.45;4.35;;;6.10;99.90;;;;;;5044516;28;20422;-76
2022/05/09 05:02:54;;;;;;;8.38;3.95;;;6.20;99.90;;;;;;5043615;28;20029;-76
2022/05/09 05:05:20;;;;;;;7.80;4.10;;;6.40;99.90;;;;;;5027578;28;20111;-76
2022/05/09 05:07:46;;;;;;;7.10;4.05;;;6.60;99.90;;;;;;5043884;28;20132;-76
2022/05/09 05:10:12;;;;;;;10.77;4.60;;;6.70;99.90;;;;;;5044252;28;20447;-76
2022/05/09 05:12:39;;;;;;;10.95;4.28;;;6.80;99.90;;;;;;5043132;28;20052;-76
2022/05/09 05:15:05;;;;;;;8.52;4.00;;;7.00;99.90;;;;;;5044511;28;20079;-77
2022/05/09 05:17:31;;;;;;;8.43;3.63;;;7.20;99.90;;;;;;5045838;28;20043;-77
2022/05/09 05:19:57;;;;;;;12.93;4.55;;;7.30;99.90;;;;;;5044021;28;20720;-77
2022/05/09 05:22:23;;;;;;;9.95;4.90;;;7.40;99.90;;;;;;5043620;28;20491;-76
2022/05/09 05:24:52;;;;;;;13.02;4.82;;;7.50;99.90;;;;;;5040000;28;20033;-77
2022/05/09 05:27:21;;;;;;;11.75;5.07;;;7.60;99.90;;;;;;5043322;28;20086;-77
2022/05/09 05:29:47;;;;;;;13.40;5.10;;;7.70;99.90;;;;;;5027719;28;20044;-77
2022/05/09 05:32:17;;;;;;;17.23;5.88;;;7.90;99.90;;;;;;5047229;28;20041;-77
2022/05/09 05:34:43;;;;;;;14.73;5.72;;;8.00;99.90;;;;;;5026095;28;20044;-77
2022/05/09 05:37:08;;;;;;;14.60;5.43;;;8.00;99.90;;;;;;5043137;28;20560;-77
2022/05/09 05:39:36;;;;;;;14.98;5.93;;;8.20;99.90;;;;;;5042782;28;20095;-77
2022/05/09 05:42:03;;;;;;;13.07;5.68;;;8.20;99.90;;;;;;5043524;28;20045;-77
2022/05/09 05:44:29;;;;;;;18.00;6.07;;;8.30;99.90;;;;;;5042326;28;20177;-77
2022/05/09 05:46:54;;;;;;;13.15;5.32;;;8.50;99.90;;;;;;5043955;28;20487;-77
2022/05/09 05:49:20;;;;;;;17.70;5.95;;;8.50;99.90;;;;;;5043200;28;20033;-77
2022/05/09 05:51:45;;;;;;;16.05;5.88;;;8.60;99.90;;;;;;5043890;28;20572;-77
2022/05/09 05:54:11;;;;;;;15.52;5.97;;;8.80;99.90;;;;;;5026225;28;20040;-78
2022/05/09 05:56:37;;;;;;;15.80;6.20;;;8.90;99.90;;;;;;5043715;28;20083;-78
2022/05/09 05:59:04;;;;;;;18.90;6.43;;;9.00;99.90;;;;;;5041653;28;20132;-78
2022/05/09 06:01:29;;;;;;;14.23;6.47;;;9.10;99.90;;;;;;5042517;28;20102;-77
2022/05/09 06:03:55;;;;;;;15.98;6.35;;;9.30;99.90;;;;;;5042573;28;20045;-77
2022/05/09 06:06:20;;;;;;;16.02;6.28;;;9.40;99.90;;;;;;5042751;28;20064;-77
2022/05/09 06:08:46;;;;;;;16.55;6.38;;;9.60;99.90;;;;;;5043497;28;20124;-76
2022/05/09 06:11:13;;;;;;;14.88;6.85;;;9.70;99.90;;;;;;5055269;28;20494;-77
2022/05/09 06:13:40;;;;;;;17.05;5.97;;;9.90;99.90;;;;;;5048273;28;21288;-77
2022/05/09 06:16:06;;;;;;;18.10;6.28;;;10.00;99.90;;;;;;5047832;28;20569;-77
2022/05/09 06:18:32;;;;;;;23.95;7.63;;;10.10;99.90;;;;;;5046530;28;20037;-77
2022/05/09 06:20:57;;;;;;;19.17;6.50;;;10.30;99.90;;;;;;5045898;28;20058;-77
2022/05/09 06:23:23;;;;;;;20.88;5.55;;;10.40;99.90;;;;;;5046190;28;20043;-77
2022/05/09 06:25:49;;;;;;;16.80;6.40;;;10.50;99.90;;;;;;5046096;28;20094;-77
2022/05/09 06:28:16;;;;;;;15.77;6.38;;;10.60;99.90;;;;;;5044413;28;20116;-77
2022/05/09 06:30:45;;;;;;;17.75;6.53;;;10.80;99.90;;;;;;5063592;28;20037;-77
2022/05/09 06:33:11;;;;;;;15.77;5.88;;;10.90;99.90;;;;;;5030489;28;20029;-77
2022/05/09 06:35:43;;;;;;;13.25;5.97;;;11.10;99.90;;;;;;5045934;28;20091;-77
2022/05/09 06:38:14;;;;;;;19.13;5.93;;;11.20;99.90;;;;;;5044052;28;20040;-77
2022/05/09 06:40:40;;;;;;;16.25;6.22;;;11.30;99.90;;;;;;5030294;28;20041;-77
2022/05/09 06:43:07;;;;;;;22.90;5.97;;;11.50;99.90;;;;;;5044844;28;20582;-77
2022/05/09 06:45:33;;;;;;;16.80;5.55;;;11.50;99.90;;;;;;5047502;28;20045;-78
2022/05/09 06:47:59;;;;;;;16.40;6.35;;;11.70;99.90;;;;;;5050159;28;20372;-77
2022/05/09 06:50:28;;;;;;;15.88;5.63;;;11.80;99.90;;;;;;5048074;28;20083;-78
2022/05/09 06:52:53;;;;;;;15.77;5.15;;;11.90;99.90;;;;;;5063213;28;20502;-77
2022/05/09 06:55:19;;;;;;;17.13;6.20;;;12.10;99.90;;;;;;5050673;28;20063;-77
2022/05/09 06:57:45;;;;;;;16.65;5.18;;;12.20;99.90;;;;;;5044757;28;20029;-77
2022/05/09 07:00:15;;;;;;;14.90;5.78;;;12.30;99.90;;;;;;5052272;28;20549;-78
2022/05/09 07:02:41;;;;;;;15.35;5.63;;;12.30;99.90;;;;;;5034319;28;20025;-78
2022/05/09 07:05:09;;;;;;;19.40;6.20;;;12.40;99.90;;;;;;5048964;28;20398;-77
2022/05/09 07:07:35;;;;;;;15.93;5.50;;;12.50;99.90;;;;;;5050412;28;20453;-78
2022/05/09 07:10:00;;;;;;;14.98;5.43;;;12.60;99.90;;;;;;5038098;28;20045;-78
2022/05/09 07:12:26;;;;;;;12.82;4.93;;;12.70;99.90;;;;;;5032371;28;20038;-78
2022/05/09 07:14:52;;;;;;;17.85;5.15;;;12.90;99.90;;;;;;5042617;28;20036;-77
2022/05/09 07:17:17;;;;;;;14.65;6.10;;;13.00;99.90;;;;;;5051013;28;20044;-78
2022/05/09 07:19:44;;;;;;;13.45;5.20;;;13.10;99.90;;;;;;5046571;28;20041;-78
2022/05/09 07:22:10;;;;;;;11.77;4.78;;;13.10;99.90;;;;;;5045248;28;20407;-78
2022/05/09 07:24:36;;;;;;;16.55;5.20;;;13.30;99.90;;;;;;5031622;28;20053;-78
2022/05/09 07:27:01;;;;;;;12.75;4.88;;;13.50;99.90;;;;;;5038551;28;20380;-78
2022/05/09 07:29:27;;;;;;;17.45;5.63;;;13.60;99.90;;;;;;5050414;28;20033;-78
2022/05/09 07:31:52;;;;;;;15.82;5.30;;;13.80;99.90;;;;;;5049614;28;20103;-78
2022/05/09 07:34:18;;;;;;;16.02;4.90;;;13.90;99.90;;;;;;5047426;28;20040;-78
2022/05/09 07:36:44;;;;;;;12.57;4.78;;;14.10;99.90;;;;;;5052428;28;20104;-78
2022/05/09 07:39:09;;;;;;;9.90;4.22;;;14.20;99.90;;;;;;5051459;28;20052;-78
2022/05/09 07:41:35;;;;;;;20.25;5.40;;;14.20;99.90;;;;;;5046101;28;20083;-78
2022/05/09 07:44:00;;;;;;;13.15;4.88;;;14.30;99.90;;;;;;5047996;28;20036;-78
2022/05/09 07:46:26;;;;;;;12.88;4.65;;;14.40;99.90;;;;;;5051320;28;20072;-78
2022/05/09 07:48:52;;;;;;;10.50;4.38;;;14.50;99.90;;;;;;5029118;28;20486;-78
2022/05/09 07:51:18;;;;;;;15.48;4.93;;;14.70;99.90;;;;;;5034497;28;20068;-78
2022/05/09 07:53:44;;;;;;;14.05;5.03;;;14.90;99.90;;;;;;5038319;28;20443;-78
2022/05/09 07:56:09;;;;;;;17.98;4.80;;;14.90;99.90;;;;;;5034316;28;20407;-76
2022/05/09 07:58:35;;;;;;;16.45;5.10;;;15.10;99.90;;;;;;5046468;28;20503;-76
2022/05/09 08:01:02;;;;;;;11.68;4.72;;;15.20;99.90;;;;;;5048600;28;20045;-76
2022/05/09 08:03:29;;;;;;;12.73;4.80;;;15.40;99.90;;;;;;5033007;28;20037;-75
2022/05/09 08:05:56;;;;;;;15.48;4.97;;;15.40;99.90;;;;;;5039892;28;20044;-76
2022/05/09 08:08:22;;;;;;;12.48;5.20;;;15.60;99.90;;;;;;5045264;28;20037;-76
2022/05/09 08:10:48;;;;;;;12.68;4.50;;;15.80;99.90;;;;;;5048588;28;20045;-75
2022/05/09 08:13:16;;;;;;;14.85;5.05;;;15.90;99.90;;;;;;5061735;28;20037;-75
2022/05/09 08:15:44;;;;;;;11.27;3.83;;;15.90;99.90;;;;;;5045438;28;20069;-75
2022/05/09 08:18:10;;;;;;;12.70;4.07;;;16.10;99.90;;;;;;5046966;28;20045;-76
2022/05/09 08:20:38;;;;;;;14.50;4.38;;;16.20;99.90;;;;;;5048448;28;20522;-76
2022/05/09 08:23:10;;;;;;;16.63;4.25;;;16.40;99.90;;;;;;5051180;28;20394;-77
2022/05/09 08:25:40;;;;;;;11.77;3.75;;;16.50;99.90;;;;;;5043655;28;20064;-77
2022/05/09 08:28:07;;;;;;;12.05;3.60;;;16.60;99.90;;;;;;5030570;28;20041;-76
2022/05/09 08:30:34;;;;;;;14.60;4.30;;;16.70;99.90;;;;;;5047067;28;20120;-77
2022/05/09 08:33:06;;;;;;;12.27;3.78;;;16.80;99.90;;;;;;5049922;28;20525;-77
2022/05/09 08:35:33;;;;;;;12.20;3.78;;;16.90;99.90;;;;;;5033095;28;20076;-77
2022/05/09 08:37:58;;;;;;;13.40;3.40;;;17.00;99.90;;;;;;5033681;28;20041;-77
2022/05/09 08:40:36;;;;;;;12.55;3.88;;;17.00;99.90;;;;;;5050071;28;20043;-77
2022/05/09 08:43:35;;;;;;;8.98;3.53;;;17.20;99.90;;;;;;5050180;28;20063;-77
2022/05/09 08:46:19;;;;;;;12.77;4.38;;;17.20;99.90;;;;;;5049809;28;20831;-77
2022/05/09 08:49:09;;;;;;;15.43;4.40;;;17.30;99.90;;;;;;5050487;28;20076;-76
2022/05/09 08:51:52;;;;;;;13.52;4.25;;;17.30;99.90;;;;;;5050219;28;20071;-77
2022/05/09 08:54:21;;;;;;;10.95;4.07;;;17.50;99.90;;;;;;5032802;28;20083;-77
2022/05/09 08:56:51;;;;;;;12.93;3.75;;;17.60;99.90;;;;;;5050017;28;20076;-76
2022/05/09 08:59:23;;;;;;;11.65;3.72;;;17.70;99.90;;;;;;5049644;28;20045;-76
2022/05/09 09:01:54;;;;;;;12.57;3.40;;;17.80;99.90;;;;;;5049398;28;20037;-76
2022/05/09 09:04:28;;;;;;;9.18;3.15;;;17.60;99.90;;;;;;5048862;28;20490;-76
2022/05/09 09:07:28;;;;;;;14.27;3.65;;;17.70;99.90;;;;;;5049559;28;20041;-76
2022/05/09 09:10:09;;;;;;;11.07;3.55;;;17.60;99.90;;;;;;5046852;28;20041;-76
2022/05/09 09:12:59;;;;;;;10.13;3.35;;;17.60;99.90;;;;;;5047882;28;20040;-76
2022/05/09 09:15:48;;;;;;;9.05;3.10;;;17.80;99.90;;;;;;5045346;28;20151;-75
2022/05/09 09:18:46;;;;;;;9.07;3.20;;;17.90;99.90;;;;;;5033754;28;20044;-75
2022/05/09 09:21:48;;;;;;;7.15;3.08;;;18.00;99.90;;;;;;5025001;28;20397;-76
2022/05/09 09:24:51;;;;;;;11.20;3.00;;;18.10;99.90;;;;;;5043751;28;20064;-76
2022/05/09 09:27:44;;;;;;;8.88;2.92;;;18.20;99.90;;;;;;5028833;28;20045;-75
2022/05/09 09:30:19;;;;;;;10.82;3.75;;;18.00;99.90;;;;;;5023984;28;20033;-75
2022/05/09 09:32:53;;;;;;;11.48;3.17;;;18.00;99.90;;;;;;5041330;28;20032;-75
2022/05/09 09:35:58;;;;;;;14.98;3.30;;;18.10;99.90;;;;;;5045298;28;20044;-75
2022/05/09 09:38:33;;;;;;;9.43;2.78;;;18.20;99.90;;;;;;5042308;28;20052;-75
2022/05/09 09:41:15;;;;;;;8.13;2.78;;;18.40;98.90;;;;;;5042524;28;20155;-75
2022/05/09 09:43:41;;;;;;;12.13;3.08;;;18.40;99.00;;;;;;5044131;28;20091;-75
2022/05/09 09:46:07;;;;;;;9.52;3.03;;;18.40;99.00;;;;;;5048059;28;20071;-75
2022/05/09 09:48:34;;;;;;;13.40;2.78;;;18.40;99.00;;;;;;5059193;28;20178;-75
2022/05/09 09:51:03;;;;;;;9.93;2.58;;;18.50;99.40;;;;;;5049836;28;20090;-75
2022/05/09 09:53:50;;;;;;;10.05;2.90;;;18.70;98.80;;;;;;5050257;28;20090;-75
2022/05/09 09:56:21;;;;;;;9.38;2.97;;;18.80;96.20;;;;;;5048387;28;20099;-75
2022/05/09 09:58:49;;;;;;;8.10;2.70;;;18.90;97.50;;;;;;5046015;28;20083;-76
2022/05/09 10:01:22;;;;;;;10.55;2.90;;;19.00;97.60;;;;;;5047454;28;20045;-75
2022/05/09 10:04:10;;;;;;;13.15;2.97;;;18.90;96.00;;;;;;5046802;28;20037;-75
2022/05/09 10:06:54;;;;;;;12.52;2.65;;;19.00;96.10;;;;;;5052032;28;20091;-75
2022/05/09 10:09:21;;;;;;;9.50;2.70;;;19.10;95.70;;;;;;5044536;28;20069;-75
2022/05/09 10:11:47;;;;;;;10.35;2.90;;;19.20;96.40;;;;;;5061775;28;20076;-76
2022/05/09 10:14:34;;;;;;;7.05;3.22;;;19.40;96.00;;;;;;5047592;28;20475;-76
2022/05/09 10:17:25;;;;;;;11.43;2.90;;;19.50;94.00;;;;;;5049565;28;20051;-76
2022/05/09 10:19:51;;;;;;;11.18;2.35;;;19.60;95.00;;;;;;5045097;28;20044;-75
2022/05/09 10:25:20;;;;;;;11.45;2.80;;;19.70;93.40;;;;;;5042813;28;20041;-76
2022/05/09 10:28:18;;;;;;;14.57;3.50;;;19.80;93.70;;;;;;5060446;28;20045;-77
2022/05/09 10:30:52;;;;;;;10.82;2.88;;;19.90;93.30;;;;;;5054406;28;20410;-76
2022/05/09 10:33:49;;;;;;;9.63;2.75;;;20.10;93.50;;;;;;5064371;28;20403;-78
2022/05/09 10:36:39;;;;;;;8.40;3.30;;;20.30;93.30;;;;;;5064648;28;20052;-77
2022/05/09 10:39:09;;;;;;;9.77;2.80;;;20.40;91.90;;;;;;5050267;28;20588;-76
2022/05/09 10:41:40;;;;;;;10.82;3.40;;;20.40;93.00;;;;;;5028635;28;20041;-78
2022/05/09 10:44:32;;;;;;;8.73;2.88;;;20.60;93.30;;;;;;5050957;28;20086;-77
2022/05/09 10:47:08;;;;;;;9.80;3.17;;;20.60;91.10;;;;;;5068226;28;20041;-77
2022/05/09 10:49:59;;;;;;;11.13;3.08;;;20.60;90.10;;;;;;5049562;28;20080;-77
2022/05/09 10:52:27;;;;;;;9.07;2.70;;;20.50;84.90;;;;;;5049955;28;20041;-77
2022/05/09 10:55:08;;;;;;;9.27;2.72;;;20.60;90.60;;;;;;5043945;28;20565;-77
2022/05/09 10:57:42;;;;;;;9.55;3.00;;;20.70;90.70;;;;;;5051508;28;20049;-77
2022/05/09 11:00:24;;;;;;;9.48;3.20;;;20.50;89.00;;;;;;5034519;28;20047;-78
2022/05/09 11:03:13;;;;;;;10.18;3.13;;;20.60;85.70;;;;;;5048777;28;20040;-77
2022/05/09 11:06:12;;;;;;;9.50;3.33;;;20.90;89.90;;;;;;5056022;28;20042;-78
2022/05/09 11:08:50;;;;;;;8.70;2.83;;;21.10;90.00;;;;;;5020148;28;20431;-79
2022/05/09 11:11:34;;;;;;;7.70;3.10;;;21.30;89.50;;;;;;5052202;28;20049;-79
2022/05/09 11:14:34;;;;;;;10.32;3.40;;;21.50;89.90;;;;;;5051135;28;20042;-78
2022/05/09 11:17:00;;;;;;;10.57;3.15;;;21.70;89.40;;;;;;5065329;28;20037;-81
2022/05/09 11:19:40;;;;;;;11.43;3.45;;;21.80;86.30;;;;;;5048859;28;20466;-79
2022/05/09 11:22:18;;;;;;;7.75;2.80;;;22.00;88.10;;;;;;5051282;28;20048;-79
2022/05/09 11:25:21;;;;;;;11.93;2.20;;;22.00;87.50;;;;;;5052765;28;20093;-80
2022/05/09 11:28:24;;;;;;;8.25;2.75;;;22.40;85.60;;;;;;5051133;28;20510;-80
2022/05/09 11:31:04;;;;;;;8.45;2.55;;;22.50;79.50;;;;;;5052507;28;20059;-81
2022/05/09 11:34:01;;;;;;;8.98;2.45;;;22.50;80.10;;;;;;5049819;28;20406;-81
2022/05/09 11:36:37;;;;;;;11.25;2.33;;;22.70;80.50;;;;;;5043846;28;20049;-81
2022/05/09 11:39:08;;;;;;;6.47;2.35;;;22.90;80.10;;;;;;5052804;28;20074;-81
2022/05/09 11:41:44;;;;;;;11.13;2.67;;;23.00;79.90;;;;;;5052219;28;20055;-81
2022/05/09 11:44:19;;;;;;;8.55;2.00;;;23.00;75.80;;;;;;5054920;28;20037;-81
2022/05/09 11:46:54;;;;;;;7.25;2.30;;;23.00;78.20;;;;;;5053316;28;20033;-81
2022/05/09 11:49:44;;;;;;;6.65;2.50;;;23.20;74.50;;;;;;5053042;28;20076;-81
2022/05/09 11:52:34;;;;;;;9.50;2.58;;;23.10;74.30;;;;;;5051246;28;20041;-81
2022/05/09 11:55:08;;;;;;;6.65;2.10;;;23.30;74.00;;;;;;5051387;28;20041;-82
2022/05/09 11:57:36;;;;;;;8.32;2.25;;;23.60;75.80;;;;;;5036803;28;20403;-81
2022/05/09 12:00:07;;;;;;;6.53;1.95;;;23.60;74.50;;;;;;5034836;28;20398;-82
2022/05/09 12:02:54;;;;;;;6.80;2.08;;;23.80;75.10;;;;;;5051358;28;20051;-82
2022/05/09 12:05:27;;;;;;;10.27;1.85;;;23.80;69.20;;;;;;5050309;28;20061;-83
2022/05/09 12:08:02;;;;;;;7.82;2.05;;;24.00;69.90;;;;;;5050374;28;20487;-85
2022/05/09 12:10:30;;;;;;;8.25;2.00;;;24.00;69.90;;;;;;5050774;28;20053;-82
2022/05/09 12:13:00;;;;;;;5.38;1.85;;;24.10;70.40;;;;;;5051286;28;20084;-83
2022/05/09 12:15:26;;;;;;;14.93;2.58;;;24.30;70.10;;;;;;5033995;28;20049;-83
2022/05/09 12:17:57;;;;;;;5.93;1.80;;;24.50;70.10;;;;;;5050947;28;20446;-83
2022/05/09 12:20:29;;;;;;;5.65;1.85;;;24.40;69.10;;;;;;5050649;28;20128;-84
2022/05/09 12:22:56;;;;;;;6.05;2.00;;;24.50;68.80;;;;;;5051007;28;20144;-83
2022/05/09 12:25:40;;;;;;;7.32;2.10;;;24.50;68.00;;;;;;5050585;28;20502;-84
2022/05/09 12:28:07;;;;;;;6.45;1.83;;;24.70;68.50;;;;;;5051905;28;20119;-84
2022/05/09 12:30:56;;;;;;;6.00;1.80;;;24.70;67.00;;;;;;5034338;28;20087;-85
2022/05/09 12:33:37;;;;;;;6.13;1.90;;;24.70;67.40;;;;;;5051719;28;20049;-85
2022/05/09 12:36:10;;;;;;;7.30;2.00;;;24.80;65.50;;;;;;5033683;28;20076;-86
2022/05/09 12:38:40;;;;;;;5.43;1.70;;;24.90;67.50;;;;;;5032619;28;20053;-85
2022/05/09 12:41:13;;;;;;;9.73;2.13;;;25.10;65.80;;;;;;5040152;28;20817;-82
2022/05/09 12:43:44;;;;;;;5.32;1.80;;;24.90;63.80;;;;;;5044123;28;20033;-84
2022/05/09 12:46:22;;;;;;;7.80;2.05;;;24.90;64.90;;;;;;5045926;28;20029;-86
2022/05/09 12:48:48;;;;;;;8.40;2.40;;;25.00;62.60;;;;;;5049431;28;20041;-86
2022/05/09 12:51:15;;;;;;;4.97;1.80;;;25.30;65.30;;;;;;5049845;28;20032;-87
2022/05/09 12:53:42;;;;;;;5.60;1.60;;;25.30;64.80;;;;;;5038225;28;20079;-86
2022/05/09 12:56:14;;;;;;;5.35;2.05;;;25.40;64.80;;;;;;5055330;28;20087;-85
2022/05/09 12:58:42;;;;;;;5.45;2.10;;;25.50;64.90;;;;;;5055441;28;20039;-87
2022/05/09 13:01:13;;;;;;;8.43;2.00;;;25.60;64.00;;;;;;5037017;28;20072;-89
2022/05/09 13:04:00;;;;;;;7.70;2.00;;;25.50;63.10;;;;;;5056434;28;20044;-87
2022/05/09 13:06:33;;;;;;;5.63;1.80;;;25.50;61.40;;;;;;5042159;28;20037;-88
2022/05/09 13:09:23;;;;;;;6.93;2.33;;;25.50;64.70;;;;;;5041737;28;20040;-87
2022/05/09 13:12:13;;;;;;;5.90;1.92;;;25.60;59.20;;;;;;5041178;28;20044;-90
2022/05/09 13:14:53;;;;;;;8.63;2.30;;;25.80;63.60;;;;;;5053195;28;20747;-88